Time;durP1;ratioP1;P1;durP2;ratioP2;P2;SDS_P1;SDS_P2;PMS_P1;PMS_P2;Temp;Humidity;BMP_temperature;BMP_pressure;BME280_temperature;BME280_humidity;BME280_pressure;Samples;Min_cycle;Max_cycle;Signal;HPM_P1;HPM_P2
2021/10/24 00:00:54;;;;;;;24.60;16.83;;;;;;;;;;5031541;28;20044;-74
2021/10/24 00:03:20;;;;;;;25.42;16.00;;;;;;;;;;5029538;28;20073;-74
2021/10/24 00:05:46;;;;;;;31.60;16.95;;;;;;;;;;5029872;28;20091;-74
2021/10/24 00:08:12;;;;;;;26.83;16.10;;;;;;;;;;5013828;28;20045;-74
2021/10/24 00:10:38;;;;;;;26.17;15.52;;;;;;;;;;5030330;28;20128;-74
2021/10/24 00:13:05;;;;;;;27.05;16.35;;;;;;;;;;5028846;28;20045;-74
2021/10/24 00:15:31;;;;;;;24.95;15.30;;;;;;;;;;5028626;28;20045;-74
2021/10/24 00:17:57;;;;;;;27.08;15.60;;;;;;;;;;5029011;28;20041;-74
2021/10/24 00:20:23;;;;;;;22.23;14.73;;;;;;;;;;5030625;28;20060;-74
2021/10/24 00:22:49;;;;;;;23.25;14.30;;;;;;;;;;5030732;28;20045;-74
2021/10/24 00:25:15;;;;;;;25.15;14.18;;;;;;;;;;5028588;28;20049;-74
2021/10/24 00:27:42;;;;;;;26.70;13.48;;;;;;;;;;5029821;28;20072;-74
2021/10/24 00:30:08;;;;;;;19.90;13.75;;;;;;;;;;5012380;28;20042;-74
2021/10/24 00:32:34;;;;;;;27.08;13.45;;;;;;;;;;5033131;28;20095;-74
2021/10/24 00:35:00;;;;;;;22.50;12.80;;;;;;;;;;5032766;28;20052;-74
2021/10/24 00:37:26;;;;;;;23.20;13.05;;;;;;;;;;5025364;28;20089;-74
2021/10/24 00:39:52;;;;;;;22.33;11.98;;;;;;;;;;5023030;28;20489;-74
2021/10/24 00:42:18;;;;;;;20.27;12.43;;;;;;;;;;5021582;28;20046;-74
2021/10/24 00:44:44;;;;;;;23.30;13.35;;;;;;;;;;5028082;28;20044;-74
2021/10/24 00:47:11;;;;;;;21.35;13.85;;;;;;;;;;5030479;28;20381;-74
2021/10/24 00:49:38;;;;;;;25.63;14.52;;;;;;;;;;5026321;28;20100;-74
2021/10/24 00:52:05;;;;;;;26.15;14.73;;;;;;;;;;5031300;28;20404;-74
2021/10/24 00:54:33;;;;;;;25.88;14.55;;;;;;;;;;5028632;28;20060;-74
2021/10/24 00:57:00;;;;;;;23.08;13.40;;;;;;;;;;5066224;28;20045;-74
2021/10/24 00:59:27;;;;;;;26.27;13.48;;;;;;;;;;5032385;28;20038;-74
2021/10/24 01:01:53;;;;;;;23.70;14.00;;;;;;;;;;5033169;28;20480;-74
2021/10/24 01:04:19;;;;;;;21.10;11.75;;;;;;;;;;5032860;28;20050;-74
2021/10/24 01:06:49;;;;;;;25.77;12.98;;;;;;;;;;5031229;28;20088;-74
2021/10/24 01:09:16;;;;;;;20.25;13.25;;;;;;;;;;5032110;28;20412;-74
2021/10/24 01:11:44;;;;;;;21.75;12.27;;;;;;;;;;5033596;28;20034;-74
2021/10/24 01:14:11;;;;;;;21.00;13.20;;;;;;;;;;5033008;28;20526;-74
2021/10/24 01:16:38;;;;;;;26.60;12.80;;;;;;;;;;5032211;28;20148;-74
2021/10/24 01:19:05;;;;;;;22.42;13.02;;;;;;;;;;5034491;28;20406;-74
2021/10/24 01:21:32;;;;;;;24.83;12.55;;;;;;;;;;5031849;28;20061;-74
2021/10/24 01:23:58;;;;;;;23.20;12.00;;;;;;;;;;5063255;28;20085;-74
2021/10/24 01:26:26;;;;;;;23.40;11.38;;;;;;;;;;5033670;28;20053;-74
2021/10/24 01:28:53;;;;;;;20.55;12.30;;;;;;;;;;5014819;28;20049;-74
2021/10/24 01:31:19;;;;;;;22.05;11.18;;;;;;;;;;5035632;28;20137;-74
2021/10/24 01:33:45;;;;;;;22.35;12.48;;;;;;;;;;5064941;28;20049;-74
2021/10/24 01:36:12;;;;;;;23.95;12.45;;;;;;;;;;5034093;28;20100;-74
2021/10/24 01:38:38;;;;;;;26.60;13.27;;;;;;;;;;5033380;28;20060;-74
2021/10/24 01:41:07;;;;;;;25.98;13.23;;;;;;;;;;5031117;28;20041;-74
2021/10/24 01:43:33;;;;;;;26.92;14.05;;;;;;;;;;5062943;28;20494;-74
2021/10/24 01:45:59;;;;;;;26.40;13.15;;;;;;;;;;5034609;28;20049;-74
2021/10/24 01:48:25;;;;;;;31.10;13.93;;;;;;;;;;5061891;28;20409;-74
2021/10/24 01:50:52;;;;;;;25.40;15.25;;;;;;;;;;5028771;28;20033;-74
2021/10/24 01:53:19;;;;;;;24.50;13.93;;;;;;;;;;5031887;28;20110;-74
2021/10/24 01:55:45;;;;;;;22.17;13.35;;;;;;;;;;5033201;28;20054;-74
2021/10/24 01:58:11;;;;;;;25.10;13.38;;;;;;;;;;5033165;28;20041;-74
2021/10/24 02:00:38;;;;;;;26.73;13.68;;;;;;;;;;5035244;28;20091;-74
2021/10/24 02:03:04;;;;;;;21.88;14.13;;;;;;;;;;5031784;28;20044;-74
2021/10/24 02:05:30;;;;;;;23.48;13.85;;;;;;;;;;5034674;28;20045;-74
2021/10/24 02:07:56;;;;;;;23.45;15.93;;;;;;;;;;5031897;28;20076;-74
2021/10/24 02:10:23;;;;;;;25.88;16.55;;;;;;;;;;5033240;28;20064;-74
2021/10/24 02:12:49;;;;;;;25.60;15.48;;;;;;;;;;5014246;28;20545;-74
2021/10/24 02:15:15;;;;;;;26.30;15.57;;;;;;;;;;5031030;28;20114;-74
2021/10/24 02:17:41;;;;;;;24.70;16.42;;;;;;;;;;5034582;28;20049;-74
2021/10/24 02:20:09;;;;;;;30.83;16.55;;;;;;;;;;5034928;28;20041;-74
2021/10/24 02:22:35;;;;;;;27.48;16.63;;;;;;;;;;5033197;28;20408;-74
2021/10/24 02:25:01;;;;;;;23.98;16.38;;;;;;;;;;5030101;28;20046;-74
2021/10/24 02:27:28;;;;;;;26.52;15.68;;;;;;;;;;5031953;28;20077;-74
2021/10/24 02:29:54;;;;;;;24.88;16.55;;;;;;;;;;5030995;28;20497;-74
2021/10/24 02:32:20;;;;;;;33.17;16.88;;;;;;;;;;5029998;28;20049;-74
2021/10/24 02:34:47;;;;;;;32.35;18.17;;;;;;;;;;5032735;28;20040;-74
2021/10/24 02:37:14;;;;;;;31.98;15.82;;;;;;;;;;5030724;28;20041;-74
2021/10/24 02:39:40;;;;;;;24.42;17.40;;;;;;;;;;5031923;28;20049;-74
2021/10/24 02:42:06;;;;;;;25.35;16.67;;;;;;;;;;5032352;28;20061;-74
2021/10/24 02:44:33;;;;;;;28.92;17.67;;;;;;;;;;5030495;28;20037;-74
2021/10/24 02:47:00;;;;;;;28.08;16.17;;;;;;;;;;5031990;28;20140;-74
2021/10/24 02:49:26;;;;;;;26.33;16.73;;;;;;;;;;5031452;28;20112;-74
2021/10/24 02:51:53;;;;;;;24.52;16.42;;;;;;;;;;5029765;28;20172;-74
2021/10/24 02:54:19;;;;;;;26.98;16.52;;;;;;;;;;5026842;28;20045;-74
2021/10/24 02:56:46;;;;;;;28.05;17.90;;;;;;;;;;5033359;28;20497;-74
2021/10/24 02:59:12;;;;;;;29.35;18.17;;;;;;;;;;5059456;28;20045;-74
2021/10/24 03:01:38;;;;;;;28.95;17.05;;;;;;;;;;5030363;28;20049;-74
2021/10/24 03:04:04;;;;;;;31.02;17.50;;;;;;;;;;5032084;28;20111;-74
2021/10/24 03:06:31;;;;;;;26.23;17.95;;;;;;;;;;5029516;28;20376;-74
2021/10/24 03:08:58;;;;;;;29.45;17.55;;;;;;;;;;5030722;28;20152;-74
2021/10/24 03:11:24;;;;;;;26.23;16.73;;;;;;;;;;5030138;28;20045;-74
2021/10/24 03:13:50;;;;;;;29.83;18.65;;;;;;;;;;5031616;28;20045;-74
2021/10/24 03:16:16;;;;;;;29.58;19.40;;;;;;;;;;5031603;28;20053;-74
2021/10/24 03:18:43;;;;;;;33.85;18.67;;;;;;;;;;5029974;28;20046;-74
2021/10/24 03:21:09;;;;;;;26.33;17.08;;;;;;;;;;5029463;28;20438;-74
2021/10/24 03:23:35;;;;;;;30.98;17.60;;;;;;;;;;5029804;28;20405;-74
2021/10/24 03:26:01;;;;;;;32.92;19.27;;;;;;;;;;5031898;28;20780;-74
2021/10/24 03:28:27;;;;;;;29.75;18.70;;;;;;;;;;5029085;28;20049;-74
2021/10/24 03:30:56;;;;;;;34.38;19.20;;;;;;;;;;5030208;28;20120;-74
2021/10/24 03:33:22;;;;;;;31.73;17.13;;;;;;;;;;5031042;28;20045;-74
2021/10/24 03:35:48;;;;;;;30.00;18.58;;;;;;;;;;5031255;28;20103;-74
2021/10/24 03:38:14;;;;;;;30.88;17.60;;;;;;;;;;5028765;28;20132;-74
2021/10/24 03:40:40;;;;;;;29.35;19.15;;;;;;;;;;5029278;28;20060;-74
2021/10/24 03:43:07;;;;;;;31.33;18.60;;;;;;;;;;5029563;28;20148;-74
2021/10/24 03:45:33;;;;;;;30.77;18.23;;;;;;;;;;5029106;28;20045;-74
2021/10/24 03:47:59;;;;;;;29.17;17.52;;;;;;;;;;5032628;28;20033;-74
2021/10/24 03:50:25;;;;;;;27.48;17.35;;;;;;;;;;5031583;28;20103;-74
2021/10/24 03:52:51;;;;;;;25.52;17.80;;;;;;;;;;5028052;28;20073;-74
2021/10/24 03:55:17;;;;;;;30.20;17.80;;;;;;;;;;5030176;28;20085;-74
2021/10/24 03:57:43;;;;;;;27.35;17.70;;;;;;;;;;5029500;28;20081;-74
2021/10/24 04:00:11;;;;;;;29.00;17.60;;;;;;;;;;5029799;28;20094;-74
2021/10/24 04:02:57;;;;;;;27.15;17.08;;;;;;;;;;5055148;28;20654;-74
2021/10/24 04:05:24;;;;;;;28.40;16.65;;;;;;;;;;5027313;28;20136;-74
2021/10/24 04:07:50;;;;;;;25.95;17.90;;;;;;;;;;5029267;28;20061;-74
2021/10/24 04:10:17;;;;;;;26.52;17.35;;;;;;;;;;5031707;28;20498;-74
2021/10/24 04:12:43;;;;;;;25.38;16.63;;;;;;;;;;5031915;28;20041;-74
2021/10/24 04:15:10;;;;;;;28.25;18.67;;;;;;;;;;5030610;28;20492;-74
2021/10/24 04:17:37;;;;;;;29.30;18.20;;;;;;;;;;5028884;28;20121;-74
2021/10/24 04:20:05;;;;;;;24.02;16.70;;;;;;;;;;5061594;28;20507;-74
2021/10/24 04:22:31;;;;;;;29.75;19.25;;;;;;;;;;5028943;28;20092;-74
2021/10/24 04:24:57;;;;;;;27.08;18.42;;;;;;;;;;5028700;28;20050;-74
2021/10/24 04:27:23;;;;;;;28.92;17.95;;;;;;;;;;5029610;28;20579;-74
2021/10/24 04:29:49;;;;;;;29.17;18.42;;;;;;;;;;5032342;28;20481;-74
2021/10/24 04:32:15;;;;;;;26.60;17.02;;;;;;;;;;5033718;28;20057;-74
2021/10/24 04:34:42;;;;;;;26.42;17.75;;;;;;;;;;5032739;28;20092;-74
2021/10/24 04:37:08;;;;;;;28.15;18.27;;;;;;;;;;5034536;28;20045;-74
2021/10/24 04:39:34;;;;;;;28.30;17.52;;;;;;;;;;5033110;28;20572;-74
2021/10/24 04:42:00;;;;;;;27.88;18.42;;;;;;;;;;5032168;28;20045;-74
2021/10/24 04:44:26;;;;;;;25.73;17.75;;;;;;;;;;5035999;28;20044;-74
2021/10/24 04:46:52;;;;;;;32.97;19.13;;;;;;;;;;5062767;28;20053;-74
2021/10/24 04:49:19;;;;;;;26.75;17.90;;;;;;;;;;5036687;28;20029;-75
2021/10/24 04:51:46;;;;;;;27.08;18.23;;;;;;;;;;5034197;28;20077;-75
2021/10/24 04:54:12;;;;;;;27.30;17.77;;;;;;;;;;5033053;28;20116;-74
2021/10/24 04:56:38;;;;;;;28.98;19.55;;;;;;;;;;5022754;28;20063;-74
2021/10/24 04:59:04;;;;;;;30.45;18.70;;;;;;;;;;5033288;28;20076;-74
2021/10/24 05:01:32;;;;;;;29.42;19.13;;;;;;;;;;5031663;28;20056;-74
2021/10/24 05:03:58;;;;;;;32.50;20.95;;;;;;;;;;5030748;28;20073;-74
2021/10/24 05:06:24;;;;;;;31.80;19.77;;;;;;;;;;5031155;28;20049;-74
2021/10/24 05:08:50;;;;;;;31.58;18.73;;;;;;;;;;5032052;28;20041;-74
2021/10/24 05:11:16;;;;;;;30.13;19.75;;;;;;;;;;5033022;28;20392;-74
2021/10/24 05:13:42;;;;;;;30.88;19.20;;;;;;;;;;5032865;28;20479;-74
2021/10/24 05:16:09;;;;;;;28.60;18.38;;;;;;;;;;5030859;28;20142;-74
2021/10/24 05:18:35;;;;;;;30.80;18.50;;;;;;;;;;5033670;28;20049;-74
2021/10/24 05:21:01;;;;;;;33.80;19.10;;;;;;;;;;5030825;28;20079;-74
2021/10/24 05:23:27;;;;;;;28.83;18.70;;;;;;;;;;5034276;28;20060;-74
2021/10/24 05:25:53;;;;;;;33.28;19.42;;;;;;;;;;5032013;28;20042;-74
2021/10/24 05:28:19;;;;;;;27.50;19.30;;;;;;;;;;5036636;28;20063;-74
2021/10/24 05:30:45;;;;;;;34.58;19.52;;;;;;;;;;5035259;28;20037;-74
2021/10/24 05:33:12;;;;;;;29.50;19.85;;;;;;;;;;5033055;28;20045;-74
2021/10/24 05:35:38;;;;;;;30.75;19.83;;;;;;;;;;5028799;28;20049;-80
2021/10/24 05:38:04;;;;;;;32.63;20.25;;;;;;;;;;5062389;28;20055;-74
2021/10/24 05:40:31;;;;;;;28.75;19.70;;;;;;;;;;5032445;28;20120;-74
2021/10/24 05:42:57;;;;;;;30.42;19.88;;;;;;;;;;5032197;28;20049;-74
2021/10/24 05:45:25;;;;;;;30.42;18.80;;;;;;;;;;5029987;28;20049;-74
2021/10/24 05:47:51;;;;;;;28.52;19.13;;;;;;;;;;5064472;28;20042;-74
2021/10/24 05:50:17;;;;;;;37.17;19.95;;;;;;;;;;5063520;28;20045;-74
2021/10/24 05:52:43;;;;;;;31.08;20.60;;;;;;;;;;5034600;28;20172;-73
2021/10/24 05:55:09;;;;;;;33.70;20.02;;;;;;;;;;5049646;28;20099;-75
2021/10/24 05:57:35;;;;;;;31.45;20.05;;;;;;;;;;5067297;28;20135;-74
2021/10/24 06:00:02;;;;;;;32.28;20.08;;;;;;;;;;5034384;28;20053;-75
2021/10/24 06:02:28;;;;;;;31.90;20.40;;;;;;;;;;5049892;28;20489;-74
2021/10/24 06:04:57;;;;;;;28.55;20.20;;;;;;;;;;5035750;28;20080;-78
2021/10/24 06:07:23;;;;;;;33.47;19.30;;;;;;;;;;5069459;28;20436;-77
2021/10/24 06:09:53;;;;;;;34.75;21.35;;;;;;;;;;5066244;28;20123;-74
2021/10/24 06:12:41;;;;;;;34.70;20.15;;;;;;;;;;5033297;28;20046;-75
2021/10/24 06:15:10;;;;;;;29.80;19.25;;;;;;;;;;5066489;28;20504;-74
2021/10/24 06:17:36;;;;;;;32.92;20.30;;;;;;;;;;5062779;28;20045;-74
2021/10/24 06:20:04;;;;;;;29.15;20.67;;;;;;;;;;5036183;28;20123;-74
2021/10/24 06:22:30;;;;;;;37.30;19.60;;;;;;;;;;5036383;28;20049;-74
2021/10/24 06:24:56;;;;;;;31.77;20.25;;;;;;;;;;5036489;28;20048;-74
2021/10/24 06:27:22;;;;;;;31.05;20.60;;;;;;;;;;5035658;28;20052;-74
2021/10/24 06:29:48;;;;;;;30.90;20.25;;;;;;;;;;5037150;28;20072;-74
2021/10/24 06:32:14;;;;;;;29.30;20.73;;;;;;;;;;5034074;28;20554;-74
2021/10/24 06:34:40;;;;;;;35.20;20.63;;;;;;;;;;5066823;28;20029;-74
2021/10/24 06:37:06;;;;;;;31.75;20.30;;;;;;;;;;5031610;28;20045;-74
2021/10/24 06:39:33;;;;;;;36.85;20.48;;;;;;;;;;5065805;28;20044;-74
2021/10/24 06:41:59;;;;;;;30.58;21.08;;;;;;;;;;5036222;28;20045;-74
2021/10/24 06:44:25;;;;;;;31.38;20.75;;;;;;;;;;5066060;28;20072;-74
2021/10/24 06:46:51;;;;;;;28.88;21.65;;;;;;;;;;5033749;28;20046;-76
2021/10/24 06:49:17;;;;;;;34.53;21.80;;;;;;;;;;5061909;28;20251;-75
2021/10/24 06:51:44;;;;;;;35.08;22.75;;;;;;;;;;5028943;28;20077;-74
2021/10/24 06:54:10;;;;;;;36.13;22.23;;;;;;;;;;5057315;28;20091;-75
2021/10/24 06:56:36;;;;;;;33.63;22.60;;;;;;;;;;5032617;28;20053;-77
2021/10/24 06:59:02;;;;;;;31.98;21.52;;;;;;;;;;5063074;28;20095;-77
2021/10/24 07:01:29;;;;;;;36.38;22.70;;;;;;;;;;5067822;28;20488;-77
2021/10/24 07:03:55;;;;;;;42.85;22.30;;;;;;;;;;5015034;28;20045;-77
2021/10/24 07:06:23;;;;;;;37.08;21.50;;;;;;;;;;5066510;28;20048;-77
2021/10/24 07:08:49;;;;;;;39.90;22.25;;;;;;;;;;5050237;28;20488;-77
2021/10/24 07:11:16;;;;;;;34.38;22.02;;;;;;;;;;5035862;28;20157;-77
2021/10/24 07:13:43;;;;;;;36.95;22.60;;;;;;;;;;5033939;28;20091;-77
2021/10/24 07:16:09;;;;;;;33.65;21.80;;;;;;;;;;5063779;28;20359;-77
2021/10/24 07:18:35;;;;;;;36.60;21.88;;;;;;;;;;5066886;28;20135;-77
2021/10/24 07:21:01;;;;;;;32.78;21.98;;;;;;;;;;5065664;28;20068;-77
2021/10/24 07:23:27;;;;;;;32.92;21.45;;;;;;;;;;5067328;28;20049;-77
2021/10/24 07:25:53;;;;;;;36.33;22.85;;;;;;;;;;5066641;28;20485;-77
2021/10/24 07:28:19;;;;;;;29.80;20.73;;;;;;;;;;5030823;28;20052;-77
2021/10/24 07:30:45;;;;;;;34.35;22.52;;;;;;;;;;5034705;28;20136;-77
2021/10/24 07:33:12;;;;;;;32.92;22.77;;;;;;;;;;5014922;28;20049;-77
2021/10/24 07:35:39;;;;;;;37.47;21.58;;;;;;;;;;5065677;28;20057;-77
2021/10/24 07:38:06;;;;;;;32.13;21.33;;;;;;;;;;5066103;28;20107;-77
2021/10/24 07:40:34;;;;;;;33.30;20.88;;;;;;;;;;5067226;28;20100;-77
2021/10/24 07:43:01;;;;;;;29.20;20.52;;;;;;;;;;5034181;28;20048;-77
2021/10/24 07:45:27;;;;;;;29.30;20.17;;;;;;;;;;5031589;28;20403;-77
2021/10/24 07:47:53;;;;;;;34.00;20.30;;;;;;;;;;5067826;28;20366;-77
2021/10/24 07:50:20;;;;;;;27.70;18.63;;;;;;;;;;5029348;28;20081;-77
2021/10/24 07:52:46;;;;;;;30.10;19.10;;;;;;;;;;5066265;28;20042;-77
2021/10/24 07:55:13;;;;;;;30.52;18.13;;;;;;;;;;5064888;28;20042;-77
2021/10/24 07:57:39;;;;;;;24.15;18.02;;;;;;;;;;5066891;28;20042;-76
2021/10/24 08:00:06;;;;;;;25.23;18.15;;;;;;;;;;5064484;28;20136;-80
2021/10/24 08:02:33;;;;;;;26.13;17.92;;;;;;;;;;5035075;28;20049;-77
2021/10/24 08:05:00;;;;;;;25.15;16.30;;;;;;;;;;5065010;28;20073;-77
2021/10/24 08:07:26;;;;;;;28.48;17.60;;;;;;;;;;5031989;28;20120;-77
2021/10/24 08:09:52;;;;;;;27.10;17.23;;;;;;;;;;5032470;28;20073;-76
2021/10/24 08:12:19;;;;;;;25.73;16.40;;;;;;;;;;5041810;28;20045;-77
2021/10/24 08:14:45;;;;;;;29.27;17.05;;;;;;;;;;5020835;28;20125;-77
2021/10/24 08:17:11;;;;;;;23.08;14.90;;;;;;;;;;5023681;28;20493;-77
2021/10/24 08:19:39;;;;;;;22.05;14.43;;;;;;;;;;5023596;28;20107;-77
2021/10/24 08:22:05;;;;;;;21.10;15.40;;;;;;;;;;5059508;28;20442;-77
2021/10/24 08:24:31;;;;;;;22.98;14.07;;;;;;;;;;5030827;28;20448;-77
2021/10/24 08:26:58;;;;;;;22.08;13.95;;;;;;;;;;5062999;28;20500;-77
2021/10/24 08:29:24;;;;;;;23.92;14.15;;;;;;;;;;5032028;28;20095;-77
2021/10/24 08:31:52;;;;;;;20.30;13.80;;;;;;;;;;5028187;28;20041;-77
2021/10/24 08:34:18;;;;;;;22.35;13.10;;;;;;;;;;5030178;28;20037;-77
2021/10/24 08:36:44;;;;;;;21.30;13.70;;;;;;;;;;5026349;28;20045;-77
2021/10/24 08:39:11;;;;;;;22.77;12.75;;;;;;;;;;5028289;28;20496;-76
2021/10/24 08:41:39;;;;;;;18.27;11.30;;;;;;;;;;5024086;28;20065;-76
2021/10/24 08:44:06;;;;;;;20.00;12.73;;;;;;;;;;5031625;28;20397;-77
2021/10/24 08:46:33;;;;;;;18.80;11.00;;;;;;;;;;5029922;28;20034;-86
2021/10/24 08:48:59;;;;;;;19.40;12.70;;;;;;;;;;5029894;28;20339;-79
2021/10/24 08:51:27;;;;;;;16.65;11.75;;;;;;;;;;5026239;28;20105;-76
2021/10/24 08:53:53;;;;;;;19.23;11.68;;;;;;;;;;5026858;28;20049;-76
2021/10/24 08:56:22;;;;;;;15.98;10.90;;;;;;;;;;5030442;28;20096;-77
2021/10/24 08:58:48;;;;;;;15.98;10.57;;;;;;;;;;5027111;28;20152;-76
2021/10/24 09:01:15;;;;;;;17.85;10.82;;;;;;;;;;5059569;28;20056;-76
2021/10/24 09:04:00;;;;;;;16.95;10.38;;;;;;;;;;5033762;28;20042;-76
2021/10/24 09:06:42;;;;;;;16.08;10.43;;;;;;;;;;5005797;28;20113;-79
2021/10/24 09:09:13;;;;;;;15.18;9.88;;;;;;;;;;4996413;28;20050;-77
2021/10/24 09:11:41;;;;;;;15.48;10.02;;;;;;;;;;5012773;28;20054;-77
2021/10/24 09:14:07;;;;;;;19.10;10.25;;;;;;;;;;5010079;28;20046;-74
2021/10/24 09:16:51;;;;;;;14.05;9.20;;;;;;;;;;5014207;28;20339;-77
2021/10/24 09:19:17;;;;;;;15.15;9.48;;;;;;;;;;5015113;28;20050;-77
2021/10/24 09:21:43;;;;;;;16.42;10.30;;;;;;;;;;5014622;28;20037;-77
2021/10/24 09:24:10;;;;;;;13.80;8.90;;;;;;;;;;5033386;28;20033;-77
2021/10/24 09:26:37;;;;;;;15.68;9.35;;;;;;;;;;5012651;28;20494;-77
2021/10/24 09:29:14;;;;;;;19.35;9.68;;;;;;;;;;5016762;28;20484;-77
2021/10/24 09:31:41;;;;;;;16.05;8.63;;;;;;;;;;5015673;28;20107;-77
2021/10/24 09:34:13;;;;;;;13.77;9.10;;;;;;;;;;5015692;28;20462;-76
2021/10/24 09:36:53;;;;;;;13.48;9.13;;;;;;;;;;5032842;28;20103;-77
2021/10/24 09:39:20;;;;;;;15.55;7.95;;;;;;;;;;5012472;28;20042;-77
2021/10/24 09:41:47;;;;;;;14.43;9.18;;;;;;;;;;4999740;28;20052;-77
2021/10/24 09:44:19;;;;;;;15.75;8.85;;;;;;;;;;5011923;28;20056;-76
2021/10/24 09:46:56;;;;;;;13.13;8.13;;;;;;;;;;5013849;28;20112;-76
2021/10/24 09:49:23;;;;;;;12.00;7.70;;;;;;;;;;5009470;28;20049;-76
2021/10/24 09:51:50;;;;;;;14.32;8.93;;;;;;;;;;5012863;28;20168;-77
2021/10/24 09:54:17;;;;;;;15.95;8.50;;;;;;;;;;5013179;28;20045;-77
2021/10/24 09:56:44;;;;;;;14.50;6.95;;;;;;;;;;5015286;28;20458;-77
2021/10/24 09:59:10;;;;;;;13.63;8.32;;;;;;;;;;5013686;28;20042;-77
2021/10/24 10:01:36;;;;;;;12.85;7.20;;;;;;;;;;5013365;28;20177;-77
2021/10/24 10:04:03;;;;;;;14.32;7.50;;;;;;;;;;5013565;28;20100;-77
2021/10/24 10:06:29;;;;;;;14.70;7.80;;;;;;;;;;5014420;28;20068;-77
2021/10/24 10:08:57;;;;;;;13.63;6.88;;;;;;;;;;5018774;28;20052;-77
2021/10/24 10:11:26;;;;;;;10.18;6.88;;;;;;;;;;5012909;28;20050;-77
2021/10/24 10:14:02;;;;;;;11.38;6.95;;;;;;;;;;5018370;28;20072;-77
2021/10/24 10:16:33;;;;;;;13.15;7.45;;;;;;;;;;5017072;28;20096;-76
2021/10/24 10:19:00;;;;;;;15.48;7.63;;;;;;;;;;5016034;28;20343;-77
2021/10/24 10:21:29;;;;;;;13.32;8.15;;;;;;;;;;5014183;28;20385;-77
2021/10/24 10:23:55;;;;;;;12.40;7.38;;;;;;;;;;5019427;28;20081;-77
2021/10/24 10:26:32;;;;;;;11.93;7.22;;;;;;;;;;5014037;28;20414;-77
2021/10/24 10:28:58;;;;;;;14.75;6.35;;;;;;;;;;5038107;28;20397;-77
2021/10/24 10:31:24;;;;;;;14.93;7.13;;;;;;;;;;5018286;28;20057;-77
2021/10/24 10:34:03;;;;;;;12.05;6.60;;;;;;;;;;5016291;28;20494;-77
2021/10/24 10:36:56;;;;;;;12.38;6.50;;;;;;;;;;5018463;28;20045;-77
2021/10/24 10:39:32;;;;;;;9.88;7.05;;;;;;;;;;5016372;28;20104;-77
2021/10/24 10:42:07;;;;;;;10.25;6.43;;;;;;;;;;5014580;28;20073;-77
2021/10/24 10:44:34;;;;;;;9.93;6.68;;;;;;;;;;5014604;28;20045;-76
2021/10/24 10:47:01;;;;;;;13.25;6.22;;;;;;;;;;5014504;28;20041;-77
2021/10/24 10:49:27;;;;;;;14.88;6.47;;;;;;;;;;5016442;28;20049;-77
2021/10/24 10:51:58;;;;;;;13.80;6.90;;;;;;;;;;5025709;28;20058;-74
2021/10/24 10:54:44;;;;;;;10.55;6.40;;;;;;;;;;5015464;28;20067;-76
2021/10/24 10:57:27;;;;;;;12.48;7.68;;;;;;;;;;5015087;28;20089;-76
2021/10/24 10:59:53;;;;;;;16.23;6.82;;;;;;;;;;5013912;28;20103;-77
2021/10/24 11:02:23;;;;;;;11.00;6.85;;;;;;;;;;5013053;28;20048;-76
2021/10/24 11:04:50;;;;;;;13.98;6.80;;;;;;;;;;5011525;28;20564;-77
2021/10/24 11:07:34;;;;;;;12.32;6.65;;;;;;;;;;5013664;28;20046;-76
2021/10/24 11:10:01;;;;;;;9.60;5.47;;;;;;;;;;5013200;28;20042;-77
2021/10/24 11:12:31;;;;;;;10.98;6.45;;;;;;;;;;5016784;28;20078;-77
2021/10/24 11:15:04;;;;;;;12.05;5.68;;;;;;;;;;5013135;28;20048;-77
2021/10/24 11:17:35;;;;;;;10.83;5.30;;;;;;;;;;5017192;28;20045;-77
2021/10/24 11:20:18;;;;;;;10.38;5.57;;;;;;;;;;5013517;28;20048;-77
2021/10/24 11:22:53;;;;;;;10.85;5.10;;;;;;;;;;5015700;28;20051;-77
2021/10/24 11:25:24;;;;;;;9.32;5.05;;;;;;;;;;5010447;28;20054;-77
2021/10/24 11:27:51;;;;;;;19.38;5.65;;;;;;;;;;5044150;28;20089;-77
2021/10/24 11:30:17;;;;;;;8.65;4.93;;;;;;;;;;5011519;28;20497;-76
2021/10/24 11:32:44;;;;;;;8.10;4.55;;;;;;;;;;5014768;28;20057;-77
2021/10/24 11:35:11;;;;;;;10.88;4.95;;;;;;;;;;5029197;28;20052;-77
2021/10/24 11:37:40;;;;;;;11.43;5.30;;;;;;;;;;5011066;28;20046;-77
2021/10/24 11:40:11;;;;;;;12.55;5.07;;;;;;;;;;5031841;28;20099;-77
2021/10/24 11:42:37;;;;;;;10.85;4.90;;;;;;;;;;5015495;28;20037;-77
2021/10/24 11:45:23;;;;;;;11.77;5.03;;;;;;;;;;5031256;28;20042;-77
2021/10/24 11:48:01;;;;;;;10.93;4.78;;;;;;;;;;5010761;28;20030;-77
2021/10/24 11:50:45;;;;;;;10.98;5.63;;;;;;;;;;5014771;28;20057;-77
2021/10/24 11:53:12;;;;;;;9.35;5.00;;;;;;;;;;5014396;28;20057;-77
2021/10/24 11:55:40;;;;;;;9.98;4.88;;;;;;;;;;5011013;28;20060;-77
2021/10/24 11:58:22;;;;;;;7.32;4.40;;;;;;;;;;5016900;28;20493;-77
2021/10/24 12:00:50;;;;;;;9.73;5.07;;;;;;;;;;5025645;28;20136;-77
2021/10/24 12:03:28;;;;;;;12.40;4.78;;;;;;;;;;5013201;28;20049;-77
2021/10/24 12:05:54;;;;;;;9.68;4.90;;;;;;;;;;5012595;28;20138;-77
2021/10/24 12:08:44;;;;;;;9.10;4.50;;;;;;;;;;5012165;28;20451;-77
2021/10/24 12:11:13;;;;;;;15.70;5.00;;;;;;;;;;5010639;28;20037;-77
2021/10/24 12:13:41;;;;;;;10.90;5.28;;;;;;;;;;5012763;28;20046;-77
2021/10/24 12:16:23;;;;;;;9.07;4.72;;;;;;;;;;5009308;28;20067;-77
2021/10/24 12:18:50;;;;;;;12.02;4.65;;;;;;;;;;5044411;28;20088;-77
2021/10/24 12:21:24;;;;;;;8.32;4.38;;;;;;;;;;5011142;28;20112;-77
2021/10/24 12:23:50;;;;;;;10.88;5.00;;;;;;;;;;5013182;28;20049;-77
2021/10/24 12:26:16;;;;;;;10.40;4.07;;;;;;;;;;5012207;28;20405;-77
2021/10/24 12:28:45;;;;;;;10.13;4.38;;;;;;;;;;5014517;28;20144;-77
2021/10/24 12:31:16;;;;;;;9.82;4.55;;;;;;;;;;5010823;28;20133;-76
2021/10/24 12:33:43;;;;;;;9.30;4.28;;;;;;;;;;5032680;28;20208;-76
2021/10/24 12:36:11;;;;;;;9.55;4.10;;;;;;;;;;4996501;28;20054;-77
2021/10/24 12:38:46;;;;;;;9.05;4.65;;;;;;;;;;5011245;28;20041;-77
2021/10/24 12:41:13;;;;;;;9.05;4.45;;;;;;;;;;5012371;28;20038;-77
2021/10/24 12:43:47;;;;;;;8.13;4.38;;;;;;;;;;5009451;28;20046;-77
2021/10/24 12:46:15;;;;;;;9.15;4.82;;;;;;;;;;5015100;28;20038;-77
2021/10/24 12:48:45;;;;;;;10.00;4.53;;;;;;;;;;5028308;28;20053;-77
2021/10/24 12:51:21;;;;;;;11.05;5.53;;;;;;;;;;5014163;28;20038;-77
2021/10/24 12:53:48;;;;;;;8.32;4.63;;;;;;;;;;5032772;28;20050;-76
2021/10/24 12:56:14;;;;;;;11.77;5.28;;;;;;;;;;5013493;28;20138;-77
2021/10/24 12:58:40;;;;;;;10.25;5.28;;;;;;;;;;5034961;28;20053;-76
2021/10/24 13:01:06;;;;;;;11.13;5.57;;;;;;;;;;5015551;28;20065;-77
2021/10/24 13:03:33;;;;;;;11.52;5.28;;;;;;;;;;5019974;28;20049;-77
2021/10/24 13:05:59;;;;;;;14.15;5.93;;;;;;;;;;5013565;28;20129;-76
2021/10/24 13:08:25;;;;;;;12.55;5.75;;;;;;;;;;5015343;28;20100;-76
2021/10/24 13:10:51;;;;;;;11.75;6.13;;;;;;;;;;5031849;28;20124;-77
2021/10/24 13:13:17;;;;;;;13.38;6.70;;;;;;;;;;5013114;28;20072;-76
2021/10/24 13:15:44;;;;;;;12.45;6.90;;;;;;;;;;5037386;28;20069;-77
2021/10/24 13:18:11;;;;;;;13.15;6.32;;;;;;;;;;5013900;28;20053;-77
2021/10/24 13:20:39;;;;;;;11.43;6.35;;;;;;;;;;5012752;28;20053;-77
2021/10/24 13:23:06;;;;;;;12.20;7.03;;;;;;;;;;5032862;28;20116;-77
2021/10/24 13:25:33;;;;;;;12.95;7.07;;;;;;;;;;5013705;28;20058;-77
2021/10/24 13:27:59;;;;;;;11.63;6.75;;;;;;;;;;5018027;28;20073;-77
2021/10/24 13:30:28;;;;;;;11.88;6.85;;;;;;;;;;5013577;28;20073;-77
2021/10/24 13:32:54;;;;;;;13.30;6.88;;;;;;;;;;5014074;28;20075;-78
2021/10/24 13:35:21;;;;;;;12.80;7.20;;;;;;;;;;5015527;28;20508;-77
2021/10/24 13:37:48;;;;;;;11.63;6.35;;;;;;;;;;5011324;28;20444;-76
2021/10/24 13:40:15;;;;;;;13.30;6.80;;;;;;;;;;5006832;28;20095;-76
2021/10/24 13:42:42;;;;;;;15.48;7.18;;;;;;;;;;5004113;28;20053;-76
2021/10/24 13:45:09;;;;;;;11.98;6.35;;;;;;;;;;5005237;28;20493;-76
2021/10/24 13:47:36;;;;;;;14.52;6.60;;;;;;;;;;4993331;28;20441;-76
2021/10/24 13:50:03;;;;;;;14.27;6.22;;;;;;;;;;5018685;28;20045;-76
2021/10/24 13:52:29;;;;;;;13.48;6.57;;;;;;;;;;5008298;28;20107;-76
2021/10/24 13:54:55;;;;;;;12.38;6.50;;;;;;;;;;5023786;28;20054;-76
2021/10/24 13:57:22;;;;;;;13.27;6.57;;;;;;;;;;5009856;28;20072;-75
2021/10/24 13:59:49;;;;;;;16.13;7.00;;;;;;;;;;4992271;28;20524;-76
2021/10/24 14:02:16;;;;;;;13.15;6.90;;;;;;;;;;5006192;28;20080;-76
2021/10/24 14:04:43;;;;;;;12.88;6.60;;;;;;;;;;5008540;28;20041;-76
2021/10/24 14:07:09;;;;;;;11.80;6.70;;;;;;;;;;4990957;28;20053;-76
2021/10/24 14:09:36;;;;;;;12.23;6.55;;;;;;;;;;5006681;28;20076;-76
2021/10/24 14:12:02;;;;;;;14.98;7.10;;;;;;;;;;5008815;28;20041;-76
2021/10/24 14:14:28;;;;;;;12.90;6.95;;;;;;;;;;5008023;28;20057;-76
2021/10/24 14:16:54;;;;;;;13.18;6.90;;;;;;;;;;5007801;28;20133;-76
2021/10/24 14:19:21;;;;;;;12.95;6.88;;;;;;;;;;5011020;28;20068;-76
2021/10/24 14:21:47;;;;;;;12.13;6.15;;;;;;;;;;5007916;28;20073;-76
2021/10/24 14:24:18;;;;;;;11.05;6.60;;;;;;;;;;5008016;28;20053;-76
2021/10/24 14:26:45;;;;;;;13.90;7.05;;;;;;;;;;5025130;28;20065;-76